createdAt,value
2022-07-26T00:01:19.338Z,17.25
2022-07-26T00:03:49.238Z,17.22
2022-07-26T00:06:18.228Z,17.19
2022-07-26T00:08:50.680Z,17.17
2022-07-26T00:11:19.537Z,17.14
2022-07-26T00:13:47.808Z,17.12
2022-07-26T00:16:15.852Z,17.09
2022-07-26T00:18:44.096Z,17.05
2022-07-26T00:21:12.220Z,17.00
2022-07-26T00:23:40.340Z,16.94
2022-07-26T00:26:10.020Z,16.89
2022-07-26T00:28:38.257Z,16.82
2022-07-26T00:31:06.557Z,16.75
2022-07-26T00:33:35.358Z,16.69
2022-07-26T00:36:03.943Z,16.64
2022-07-26T00:38:32.079Z,16.59
2022-07-26T00:41:00.361Z,16.53
2022-07-26T00:43:28.379Z,16.48
2022-07-26T00:45:56.679Z,16.44
2022-07-26T00:48:24.837Z,16.39
2022-07-26T00:50:54.591Z,16.34
2022-07-26T00:53:24.012Z,16.29
2022-07-26T00:55:53.136Z,16.23
2022-07-26T00:58:21.249Z,16.19
2022-07-26T01:00:49.234Z,16.11
2022-07-26T01:03:17.331Z,16.05
2022-07-26T01:05:46.039Z,15.99
2022-07-26T01:08:14.106Z,15.91
2022-07-26T01:10:43.887Z,15.85
2022-07-26T01:13:13.294Z,15.78
2022-07-26T01:15:41.341Z,15.73
2022-07-26T01:18:09.426Z,15.67
2022-07-26T01:20:38.062Z,15.64
2022-07-26T01:23:07.542Z,15.60
2022-07-26T01:25:43.320Z,15.55
2022-07-26T01:28:11.969Z,15.50
2022-07-26T01:30:49.573Z,15.47
2022-07-26T01:33:17.746Z,15.43
2022-07-26T01:35:45.933Z,15.40
2022-07-26T01:38:14.540Z,15.36
2022-07-26T01:40:42.553Z,15.33
2022-07-26T01:43:10.662Z,15.32
2022-07-26T01:45:38.702Z,15.30
2022-07-26T01:48:07.035Z,15.28
2022-07-26T01:50:36.697Z,15.26
2022-07-26T01:53:06.198Z,15.25
2022-07-26T01:55:36.044Z,15.22
2022-07-26T01:58:08.091Z,15.21
2022-07-26T02:00:36.157Z,15.19
2022-07-26T02:03:04.445Z,15.17
2022-07-26T02:05:32.663Z,15.14
2022-07-26T02:08:00.682Z,15.11
2022-07-26T02:10:48.702Z,15.09
2022-07-26T02:13:17.741Z,15.06
2022-07-26T02:15:45.826Z,15.04
2022-07-26T02:18:14.144Z,15.01
2022-07-26T02:20:42.227Z,14.98
2022-07-26T02:23:10.380Z,14.94
2022-07-26T02:25:41.039Z,14.91
2022-07-26T02:28:09.111Z,14.89
2022-07-26T02:30:38.286Z,14.86
2022-07-26T02:33:09.536Z,14.82
2022-07-26T02:35:37.648Z,14.77
2022-07-26T02:38:08.523Z,14.72
2022-07-26T02:40:37.977Z,14.69
2022-07-26T02:43:07.380Z,14.65
2022-07-26T02:45:36.121Z,14.61
2022-07-26T02:48:05.159Z,14.58
2022-07-26T02:50:33.570Z,14.56
2022-07-26T02:53:01.715Z,14.52
2022-07-26T02:55:32.203Z,14.49
2022-07-26T02:58:00.348Z,14.45
2022-07-26T03:00:29.642Z,14.43
2022-07-26T03:02:57.798Z,14.41
2022-07-26T03:05:26.020Z,14.39
2022-07-26T03:07:56.130Z,14.38
2022-07-26T03:10:24.244Z,14.37
2022-07-26T03:12:52.352Z,14.35
2022-07-26T03:15:20.709Z,14.32
2022-07-26T03:17:49.526Z,14.32
2022-07-26T03:20:17.578Z,14.30
2022-07-26T03:22:45.669Z,14.29
2022-07-26T03:25:15.155Z,14.30
2022-07-26T03:27:43.333Z,14.32
2022-07-26T03:30:12.272Z,14.34
2022-07-26T03:32:40.765Z,14.36
2022-07-26T03:35:09.250Z,14.36
2022-07-26T03:37:45.921Z,14.34
2022-07-26T03:40:18.696Z,14.33
2022-07-26T03:42:47.963Z,14.33
2022-07-26T03:45:16.489Z,14.32
2022-07-26T03:47:46.550Z,14.34
2022-07-26T03:50:14.735Z,14.36
2022-07-26T03:52:42.862Z,14.37
2022-07-26T03:55:30.131Z,14.38
2022-07-26T03:57:58.261Z,14.38
2022-07-26T04:00:26.357Z,14.41
2022-07-26T04:02:54.616Z,14.43
2022-07-26T04:05:23.507Z,14.45
2022-07-26T04:07:53.324Z,14.47
2022-07-26T04:10:22.924Z,14.49
2022-07-26T04:12:50.901Z,14.53
2022-07-26T04:15:21.097Z,14.57
2022-07-26T04:17:49.552Z,14.62
2022-07-26T04:20:17.680Z,14.64
2022-07-26T04:22:45.748Z,14.69
2022-07-26T04:25:13.865Z,14.74
2022-07-26T04:27:41.990Z,14.79
2022-07-26T04:30:14.758Z,14.85
2022-07-26T04:32:45.832Z,14.94
2022-07-26T04:35:16.495Z,15.05
2022-07-26T04:37:45.684Z,15.26
2022-07-26T04:40:23.575Z,15.60
2022-07-26T04:42:52.273Z,15.97
2022-07-26T04:45:21.341Z,16.34
2022-07-26T04:47:50.774Z,16.70
2022-07-26T04:50:21.643Z,17.02
2022-07-26T04:52:50.988Z,17.34
2022-07-26T04:55:19.740Z,17.67
2022-07-26T04:57:48.857Z,17.98
2022-07-26T05:00:23.340Z,18.29
2022-07-26T05:02:55.776Z,18.61
2022-07-26T05:05:25.258Z,18.95
2022-07-26T05:07:55.816Z,19.28
2022-07-26T05:10:30.079Z,19.59
2022-07-26T05:12:58.486Z,19.84
2022-07-26T05:15:34.997Z,20.11
2022-07-26T05:18:10.427Z,20.40
2022-07-26T05:20:39.410Z,20.71
2022-07-26T05:23:08.163Z,20.99
2022-07-26T05:25:36.635Z,21.25
2022-07-26T05:28:05.006Z,21.49
2022-07-26T05:30:33.275Z,21.70
2022-07-26T05:33:01.344Z,21.93
2022-07-26T05:35:29.367Z,22.16
2022-07-26T05:37:57.423Z,22.34
2022-07-26T05:40:25.489Z,22.51
2022-07-26T05:42:53.631Z,22.70
2022-07-26T05:45:21.849Z,22.91
2022-07-26T05:47:53.201Z,23.15
2022-07-26T05:50:21.272Z,23.32
2022-07-26T05:52:49.538Z,23.49
2022-07-26T05:55:17.691Z,23.70
2022-07-26T05:57:49.623Z,23.86
2022-07-26T06:00:18.431Z,23.97
2022-07-26T06:02:46.569Z,24.05
2022-07-26T06:05:16.167Z,24.15
2022-07-26T06:07:44.273Z,24.28
2022-07-26T06:10:12.548Z,24.41
2022-07-26T06:12:40.710Z,24.58
2022-07-26T06:15:15.348Z,24.74
2022-07-26T06:17:44.114Z,24.85
2022-07-26T06:20:12.373Z,24.96
2022-07-26T06:22:40.632Z,25.06
2022-07-26T06:25:08.847Z,25.15
2022-07-26T06:27:36.919Z,25.29
2022-07-26T06:30:05.345Z,25.44
2022-07-26T06:32:33.379Z,25.60
2022-07-26T06:35:01.449Z,25.75
2022-07-26T06:37:29.501Z,25.89
2022-07-26T06:39:57.578Z,26.03
2022-07-26T06:42:25.626Z,26.21
2022-07-26T06:44:53.613Z,26.37
2022-07-26T06:47:21.614Z,26.43
2022-07-26T06:49:49.623Z,26.50
2022-07-26T06:52:17.618Z,26.59
2022-07-26T06:54:45.817Z,26.72
2022-07-26T06:57:14.100Z,26.88
2022-07-26T06:59:42.194Z,27.07
2022-07-26T07:02:10.246Z,27.25
2022-07-26T07:04:38.339Z,27.41
2022-07-26T07:07:06.633Z,27.49
2022-07-26T07:09:36.401Z,27.61
2022-07-26T07:12:09.704Z,27.80
2022-07-26T07:14:39.842Z,27.97
2022-07-26T07:17:12.149Z,28.09
2022-07-26T07:19:42.399Z,28.21
2022-07-26T07:22:12.503Z,28.29
2022-07-26T07:24:41.852Z,28.38
2022-07-26T07:27:11.445Z,28.53
2022-07-26T07:29:41.400Z,28.64
2022-07-26T07:32:18.494Z,28.79
2022-07-26T07:34:48.618Z,28.94
2022-07-26T07:37:18.323Z,29.05
2022-07-26T07:39:50.766Z,29.21
2022-07-26T07:42:20.172Z,29.42
2022-07-26T07:44:50.304Z,29.52
2022-07-26T07:47:18.456Z,29.43
2022-07-26T07:49:51.699Z,29.47
2022-07-26T07:52:22.228Z,29.56
2022-07-26T07:54:50.537Z,29.64
2022-07-26T07:57:20.327Z,29.81
2022-07-26T07:59:48.378Z,30.02
2022-07-26T08:02:16.310Z,30.23
2022-07-26T08:04:44.596Z,30.37
2022-07-26T08:07:12.604Z,30.55
2022-07-26T08:09:43.336Z,30.84
2022-07-26T08:12:12.853Z,31.06
2022-07-26T08:14:41.423Z,31.25
2022-07-26T08:17:09.890Z,31.30
2022-07-26T08:19:42.310Z,31.33
2022-07-26T08:22:11.346Z,31.44
2022-07-26T08:24:40.591Z,31.56
2022-07-26T08:27:08.727Z,31.67
2022-07-26T08:29:36.916Z,31.82
2022-07-26T08:32:06.085Z,32.04
2022-07-26T08:34:34.092Z,32.31
2022-07-26T08:37:18.239Z,32.62
2022-07-26T08:39:48.324Z,32.98
2022-07-26T08:42:22.742Z,33.37
2022-07-26T08:44:52.314Z,33.78
2022-07-26T08:47:37.933Z,34.12
2022-07-26T08:50:11.023Z,34.43
2022-07-26T08:52:41.109Z,34.65
2022-07-26T08:55:10.084Z,34.79
2022-07-26T08:57:38.162Z,34.90
2022-07-26T09:00:22.084Z,35.04
2022-07-26T09:02:50.533Z,35.17
2022-07-26T09:05:20.182Z,35.22
2022-07-26T09:07:48.371Z,35.29
2022-07-26T09:10:16.671Z,35.39
2022-07-26T09:12:44.965Z,35.44
2022-07-26T09:15:25.164Z,35.55
2022-07-26T09:17:56.399Z,35.73
2022-07-26T09:20:29.682Z,35.97
2022-07-26T09:23:10.172Z,36.16
2022-07-26T09:25:42.096Z,36.26
2022-07-26T09:28:25.824Z,36.38
2022-07-26T09:30:57.975Z,36.43
2022-07-26T09:33:26.816Z,36.52
2022-07-26T09:36:06.752Z,36.63
2022-07-26T09:38:43.370Z,36.69
2022-07-26T09:41:19.293Z,36.65
2022-07-26T09:43:53.210Z,36.47
2022-07-26T09:46:26.354Z,36.49
2022-07-26T09:49:12.633Z,36.59
2022-07-26T09:51:47.901Z,36.64
2022-07-26T09:54:41.518Z,36.77
2022-07-26T09:57:10.787Z,36.92
2022-07-26T09:59:38.920Z,37.10
2022-07-26T10:02:07.495Z,37.01
2022-07-26T10:04:35.845Z,36.90
2022-07-26T10:07:04.463Z,36.94
2022-07-26T10:10:02.159Z,37.10
2022-07-26T10:12:33.377Z,37.13
2022-07-26T10:15:01.588Z,37.09
2022-07-26T10:17:31.557Z,37.12
2022-07-26T10:20:02.408Z,36.79
2022-07-26T10:22:32.064Z,36.65
2022-07-26T10:25:18.512Z,36.58
2022-07-26T10:27:51.879Z,36.57
2022-07-26T10:30:19.906Z,36.67
2022-07-26T10:32:53.872Z,36.88
2022-07-26T10:35:40.261Z,37.12
2022-07-26T10:38:13.817Z,37.29
2022-07-26T10:40:58.714Z,37.43
2022-07-26T10:43:40.714Z,37.50
2022-07-26T10:46:18.804Z,37.63
2022-07-26T10:49:06.573Z,37.77
2022-07-26T10:51:40.861Z,37.88
2022-07-26T10:54:12.484Z,38.08
2022-07-26T10:56:41.414Z,38.23
2022-07-26T10:59:09.613Z,38.37
2022-07-26T11:01:43.177Z,38.46
2022-07-26T11:04:23.973Z,38.51
2022-07-26T11:06:52.924Z,38.33
2022-07-26T11:09:21.118Z,38.33
2022-07-26T11:11:52.376Z,38.40
2022-07-26T11:14:20.408Z,38.48
2022-07-26T11:16:50.697Z,38.57
2022-07-26T11:19:26.138Z,38.65
2022-07-26T11:21:56.553Z,38.70
2022-07-26T11:24:26.397Z,38.84
2022-07-26T11:26:55.240Z,38.96
2022-07-26T11:29:32.119Z,39.04
2022-07-26T11:32:25.477Z,39.06
2022-07-26T11:35:05.300Z,38.88
2022-07-26T11:37:33.277Z,38.87
2022-07-26T11:40:02.367Z,39.03
2022-07-26T11:42:30.461Z,39.04
2022-07-26T11:44:58.629Z,39.19
2022-07-26T11:47:26.847Z,39.31
2022-07-26T11:52:43.166Z,39.59
2022-07-26T11:55:11.399Z,39.71
2022-07-26T11:57:39.332Z,39.81
2022-07-26T12:00:08.095Z,39.78
2022-07-26T12:02:41.926Z,39.69
2022-07-26T12:05:22.505Z,39.47
2022-07-26T12:07:59.054Z,39.27
2022-07-26T12:10:28.376Z,39.31
2022-07-26T12:13:14.942Z,39.33
2022-07-26T12:15:53.419Z,39.46
2022-07-26T12:18:27.065Z,39.49
2022-07-26T12:21:04.652Z,39.59
2022-07-26T12:23:49.376Z,39.53
2022-07-26T12:26:22.568Z,39.33
2022-07-26T12:28:50.718Z,39.11
2022-07-26T12:31:32.979Z,39.04
2022-07-26T12:34:01.557Z,38.92
2022-07-26T12:36:33.534Z,38.82
2022-07-26T12:39:01.668Z,38.83
2022-07-26T12:41:38.519Z,38.92
2022-07-26T12:44:09.368Z,39.00
2022-07-26T12:46:37.546Z,39.11
2022-07-26T12:49:08.515Z,39.22
2022-07-26T12:51:40.728Z,39.39
2022-07-26T12:54:09.221Z,39.44
2022-07-26T12:56:37.628Z,39.45
2022-07-26T12:59:05.707Z,39.51
2022-07-26T13:01:33.912Z,39.50
2022-07-26T13:04:02.211Z,39.59
2022-07-26T13:06:30.488Z,39.75
2022-07-26T13:08:58.600Z,39.87
2022-07-26T13:11:26.886Z,39.93
2022-07-26T13:13:55.943Z,39.93
2022-07-26T13:16:25.188Z,39.95
2022-07-26T13:18:53.171Z,40.07
2022-07-26T13:21:21.157Z,40.20
2022-07-26T13:23:49.105Z,40.25
2022-07-26T13:26:17.134Z,40.10
2022-07-26T13:28:45.744Z,39.88
2022-07-26T13:31:18.762Z,39.67
2022-07-26T13:33:47.542Z,39.60
2022-07-26T13:36:15.594Z,39.63
2022-07-26T13:38:43.601Z,39.70
2022-07-26T13:41:11.835Z,39.75
2022-07-26T13:43:39.921Z,39.89
2022-07-26T13:46:08.068Z,40.03
2022-07-26T13:48:36.224Z,40.01
2022-07-26T13:51:04.582Z,39.93
2022-07-26T13:53:32.634Z,39.97
2022-07-26T13:56:00.620Z,39.94
2022-07-26T13:58:28.853Z,39.77
2022-07-26T14:00:57.004Z,39.74
2022-07-26T14:03:26.204Z,39.78
2022-07-26T14:05:54.947Z,39.80
2022-07-26T14:08:22.935Z,39.76
2022-07-26T14:10:50.989Z,39.75
2022-07-26T14:13:19.025Z,39.77
2022-07-26T14:15:46.995Z,39.75
2022-07-26T14:18:15.107Z,39.70
2022-07-26T14:20:43.342Z,39.64
2022-07-26T14:23:11.264Z,39.60
2022-07-26T14:25:39.289Z,39.63
2022-07-26T14:28:07.404Z,39.69
2022-07-26T14:30:35.788Z,39.73
2022-07-26T14:33:05.100Z,39.75
2022-07-26T14:35:33.181Z,39.75
2022-07-26T14:38:01.366Z,39.82
2022-07-26T14:40:29.693Z,39.85
2022-07-26T14:42:57.985Z,39.74
2022-07-26T14:45:25.957Z,39.68
2022-07-26T14:47:54.455Z,39.57
2022-07-26T14:50:35.023Z,39.33
2022-07-26T14:53:16.646Z,39.17
2022-07-26T14:55:44.642Z,39.11
2022-07-26T14:58:12.770Z,38.94
2022-07-26T15:00:40.866Z,38.88
2022-07-26T15:03:10.483Z,38.85
2022-07-26T15:05:38.753Z,38.80
2022-07-26T15:08:06.976Z,38.75
2022-07-26T15:10:35.006Z,38.68
2022-07-26T15:13:06.075Z,38.62
2022-07-26T15:15:34.350Z,38.53
2022-07-26T15:18:02.326Z,38.46
2022-07-26T15:20:30.398Z,38.28
2022-07-26T15:22:58.470Z,38.21
2022-07-26T15:25:26.501Z,38.20
2022-07-26T15:27:54.523Z,38.17
2022-07-26T15:30:22.521Z,38.14
2022-07-26T15:32:55.538Z,38.15
2022-07-26T15:35:23.752Z,38.10
2022-07-26T15:37:51.815Z,38.04
2022-07-26T15:40:21.081Z,38.00
2022-07-26T15:42:51.055Z,38.04
2022-07-26T15:45:19.785Z,38.04
2022-07-26T15:47:55.178Z,37.95
2022-07-26T15:50:26.405Z,37.90
2022-07-26T15:52:54.525Z,37.83
2022-07-26T15:55:22.443Z,37.79
2022-07-26T15:57:50.442Z,37.72
2022-07-26T16:00:18.740Z,37.59
2022-07-26T16:02:46.809Z,37.47
2022-07-26T16:05:14.999Z,37.37
2022-07-26T16:07:44.372Z,37.30
2022-07-26T16:10:13.801Z,37.24
2022-07-26T16:12:42.550Z,37.17
2022-07-26T16:15:11.575Z,37.11
2022-07-26T16:17:40.289Z,37.06
2022-07-26T16:20:08.799Z,36.93
2022-07-26T16:22:41.252Z,36.80
2022-07-26T16:25:12.619Z,36.64
2022-07-26T16:27:42.785Z,36.48
2022-07-26T16:30:12.914Z,36.33
2022-07-26T16:32:41.753Z,36.19
2022-07-26T16:35:10.157Z,36.05
2022-07-26T16:37:38.692Z,35.94
2022-07-26T16:40:07.790Z,35.83
2022-07-26T16:42:36.190Z,35.70
2022-07-26T16:45:04.632Z,35.58
2022-07-26T16:47:32.737Z,35.48
2022-07-26T16:50:01.071Z,35.37
2022-07-26T16:52:29.006Z,35.31
2022-07-26T16:54:57.099Z,35.28
2022-07-26T16:57:25.048Z,35.23
2022-07-26T16:59:53.091Z,35.14
2022-07-26T17:02:21.218Z,35.01
2022-07-26T17:04:49.405Z,34.87
2022-07-26T17:07:26.070Z,34.69
2022-07-26T17:09:55.926Z,34.49
2022-07-26T17:12:24.271Z,34.31
2022-07-26T17:14:52.313Z,34.13
2022-07-26T17:17:20.731Z,33.93
2022-07-26T17:19:48.812Z,33.72
2022-07-26T17:22:17.666Z,33.51
2022-07-26T17:24:45.941Z,33.31
2022-07-26T17:27:15.000Z,33.10
2022-07-26T17:29:43.711Z,32.88
2022-07-26T17:32:11.801Z,32.65
2022-07-26T17:34:39.858Z,32.45
2022-07-26T17:37:10.143Z,32.28
2022-07-26T17:39:51.746Z,32.11
2022-07-26T17:42:21.563Z,31.89
2022-07-26T17:44:50.324Z,31.69
2022-07-26T17:47:29.279Z,31.52
2022-07-26T17:50:26.233Z,31.33
2022-07-26T17:52:50.209Z,31.13
2022-07-26T17:55:19.555Z,30.93
2022-07-26T17:57:49.590Z,30.76
2022-07-26T18:00:21.295Z,30.58
2022-07-26T18:02:50.006Z,30.42
2022-07-26T18:05:19.607Z,30.26
2022-07-26T18:07:47.809Z,30.10
2022-07-26T18:10:16.146Z,29.92
2022-07-26T18:12:44.257Z,29.74
2022-07-26T18:15:12.786Z,29.55
2022-07-26T18:17:41.031Z,29.37
2022-07-26T18:20:09.697Z,29.21
2022-07-26T18:22:38.579Z,29.03
2022-07-26T18:25:07.399Z,28.87
2022-07-26T18:27:35.603Z,28.70
2022-07-26T18:30:04.536Z,28.53
2022-07-26T18:32:34.242Z,28.36
2022-07-26T18:35:02.437Z,28.21
2022-07-26T18:37:30.395Z,28.06
2022-07-26T18:39:59.796Z,27.90
2022-07-26T18:42:27.914Z,27.74
2022-07-26T18:44:56.544Z,27.58
2022-07-26T18:47:24.610Z,27.41
2022-07-26T18:49:52.625Z,27.27
2022-07-26T18:52:28.526Z,27.11
2022-07-26T18:55:10.034Z,26.95
2022-07-26T18:57:40.473Z,26.80
2022-07-26T19:00:15.817Z,26.65
2022-07-26T19:02:45.877Z,26.51
2022-07-26T19:05:15.159Z,26.39
2022-07-26T19:07:43.808Z,26.27
2022-07-26T19:10:13.541Z,26.15
2022-07-26T19:12:42.691Z,26.05
2022-07-26T19:15:11.996Z,25.95
2022-07-26T19:17:40.127Z,25.85
2022-07-26T19:20:10.047Z,25.76
2022-07-26T19:22:38.505Z,25.64
2022-07-26T19:25:13.602Z,25.55
2022-07-26T19:27:41.961Z,25.46
2022-07-26T19:30:11.784Z,25.39
2022-07-26T19:32:39.933Z,25.31
2022-07-26T19:35:09.166Z,25.24
2022-07-26T19:37:37.507Z,25.19
2022-07-26T19:40:06.298Z,25.14
2022-07-26T19:42:34.699Z,25.11
2022-07-26T19:45:02.876Z,25.08
2022-07-26T19:47:31.218Z,25.06
2022-07-26T19:49:59.307Z,25.02
2022-07-26T19:52:28.125Z,24.97
2022-07-26T19:54:56.163Z,24.93
2022-07-26T19:57:24.402Z,24.90
2022-07-26T19:59:54.430Z,24.82
2022-07-26T20:02:22.839Z,24.73
2022-07-26T20:04:51.324Z,24.64
2022-07-26T20:07:19.830Z,24.55
2022-07-26T20:09:51.212Z,24.47
2022-07-26T20:12:20.869Z,24.41
2022-07-26T20:14:49.089Z,24.29
2022-07-26T20:17:17.474Z,24.20
2022-07-26T20:19:45.661Z,24.11
2022-07-26T20:22:13.731Z,24.03
2022-07-26T20:24:41.749Z,23.94
2022-07-26T20:27:10.012Z,23.93
2022-07-26T20:29:37.977Z,23.92
2022-07-26T20:32:06.320Z,23.94
2022-07-26T20:34:35.212Z,23.96
2022-07-26T20:37:03.603Z,23.98
2022-07-26T20:39:31.799Z,23.99
2022-07-26T20:41:59.900Z,24.01
2022-07-26T20:44:29.531Z,24.02
2022-07-26T20:46:57.585Z,24.03
2022-07-26T20:49:25.599Z,24.03
2022-07-26T20:51:53.666Z,24.04
2022-07-26T20:54:21.975Z,24.04
2022-07-26T20:56:50.042Z,24.03
2022-07-26T20:59:18.014Z,24.00
2022-07-26T21:01:46.132Z,23.98
2022-07-26T21:04:14.409Z,23.95
2022-07-26T21:06:42.444Z,23.94
2022-07-26T21:09:10.724Z,23.91
2022-07-26T21:11:39.168Z,23.87
2022-07-26T21:14:07.312Z,23.84
2022-07-26T21:16:36.615Z,23.81
2022-07-26T21:19:05.823Z,23.78
2022-07-26T21:21:34.445Z,23.77
2022-07-26T21:24:02.684Z,23.75
2022-07-26T21:26:30.842Z,23.73
2022-07-26T21:28:58.902Z,23.72
2022-07-26T21:31:26.960Z,23.71
2022-07-26T21:33:55.218Z,23.71
2022-07-26T21:36:23.486Z,23.70
2022-07-26T21:38:51.562Z,23.67
2022-07-26T21:41:20.366Z,23.64
2022-07-26T21:43:48.489Z,23.62
2022-07-26T21:46:16.703Z,23.60
2022-07-26T21:48:44.973Z,23.58
2022-07-26T21:51:13.207Z,23.55
2022-07-26T21:53:41.342Z,23.52
2022-07-26T21:56:09.817Z,23.50
2022-07-26T21:58:38.522Z,23.48
2022-07-26T22:01:08.649Z,23.46
2022-07-26T22:03:38.198Z,23.41
2022-07-26T22:06:07.785Z,23.39
2022-07-26T22:08:36.408Z,23.35
2022-07-26T22:11:04.986Z,23.31
2022-07-26T22:13:33.320Z,23.28
2022-07-26T22:16:01.680Z,23.25
2022-07-26T22:18:29.764Z,23.20
2022-07-26T22:20:58.289Z,23.18
2022-07-26T22:23:30.321Z,23.15
2022-07-26T22:25:59.950Z,23.13
2022-07-26T22:28:29.279Z,23.10
2022-07-26T22:30:57.724Z,23.06
2022-07-26T22:33:25.885Z,23.01
2022-07-26T22:35:54.086Z,23.00
2022-07-26T22:38:22.433Z,22.96
2022-07-26T22:40:50.507Z,22.95
2022-07-26T22:43:18.667Z,22.92
2022-07-26T22:45:46.856Z,22.88
2022-07-26T22:48:14.925Z,22.83
2022-07-26T22:50:43.212Z,22.79
2022-07-26T22:53:11.371Z,22.77
2022-07-26T22:55:39.478Z,22.74
2022-07-26T22:58:07.620Z,22.71
2022-07-26T23:00:35.895Z,22.69
2022-07-26T23:03:04.512Z,22.67
2022-07-26T23:05:45.574Z,22.64
2022-07-26T23:08:44.295Z,22.62
2022-07-26T23:11:05.191Z,22.60
2022-07-26T23:13:33.682Z,22.58
2022-07-26T23:16:02.201Z,22.55
2022-07-26T23:18:31.616Z,22.53
2022-07-26T23:21:00.962Z,22.49
2022-07-26T23:23:29.567Z,22.47
2022-07-26T23:25:59.354Z,22.44
2022-07-26T23:28:37.602Z,22.41
2022-07-26T23:31:08.767Z,22.40
2022-07-26T23:33:52.971Z,22.39
2022-07-26T23:36:27.655Z,22.37
2022-07-26T23:38:58.584Z,22.34
2022-07-26T23:41:27.860Z,22.34
2022-07-26T23:43:56.414Z,22.33
2022-07-26T23:46:25.197Z,22.32
2022-07-26T23:48:54.371Z,22.33
2022-07-26T23:51:23.131Z,22.34
2022-07-26T23:53:52.942Z,22.37
2022-07-26T23:56:21.169Z,22.39
2022-07-26T23:58:49.720Z,22.41
